KSVC/SVC METAR and TAF weather

Enter ICAO airport designator
Station Type Date Time Source
KSVC METAR 2020/10/20 17:35 UTC NOAA

KSVC 201735Z AUTO 16005KT 10SM CLR 25/M08 A3012 RMK AO2 T02531077


Station Type Date Time Source
KSVC Decoded METAR 2020/10/20 17:35 UTC NOAA

Silver City / Grant, NM, United States (KSVC) 32-38N 108-09W
Oct 20, 2020 - 01:35 PM EDT / 2020.10.20 1735 UTC
Wind: from the SSE (160 degrees) at 6 MPH (5 KT):0
Visibility: 10 mile(s):0
Sky conditions: clear
Temperature: 77.5 F (25.3 C)
Dew Point: 18.1 F (-7.7 C)
Relative Humidity: 10%
Pressure (altimeter): 30.12 in. Hg (1019 hPa)
ob: KSVC 201735Z AUTO 16005KT 10SM CLR 25/M08 A3012 RMK AO2 T02531077
cycle: 17

Station Type Date Time Source
KSVC TAF UTC NOAA

Error!

Example: see airport list